Savoonga, AK

4:20 AM AKDT on September 02, 2014 (GMT -0800)
Savoonga | Change Station
CLOSE
Current Station
Airport
Location: Savoonga,
Elevation: 52 ft
Nearby Weather Stations

Elev 52 ft 63.69 °N, 170.49 °W | Updated 25 minutes ago

Partly Cloudy
Partly Cloudy
39 °F
Feels Like 34 °F
N
7
Wind Variable Wind from South

Today
High -- | Low -- °F
--% Chance of Precip.
Yesterday
High -- | Low -- °F
Precip. -- in
8:09 AM 10:31 PM
Waxing Crescent, 51% visible
Pressure 29.92 in
Visibility 10.0 miles
Clouds Few 5000 ft
Windchill 34 °F
Dew Point 36 °F
Humidity 87%
Rainfall 0.00 in
Snow Depth Not available.
UV 0 out of 12
Pollen Not available.
Air Quality Not available.
Flu Activity Not available.
METAR PASA 021155Z 19006KT 10SM FEW050 04/02 A2992 RMK VIA AISR

More Conditions Fewer Conditions

Pressure 29.92 in
Visibility 10.0 miles
Clouds Few 5000 ft
Windchill 34 °F
Dew Point 36 °F
Humidity 87%
Rainfall 0.00 in
Snow Depth Not available.
UV 0 out of 12
Pollen Not available.
Air Quality Not available.
Flu Activity Not available.
METAR PASA 021155Z 19006KT 10SM FEW050 04/02 A2992 RMK VIA AISR

More Conditions Fewer Conditions

10-Day Weather Forecast

Almanac

Astronomy

Sep. 02, 2014 Rise Set
Actual Time 8:09 AM AKDT 10:31 PM AKDT
Civil Twilight 7:17 AM AKDT 11:22 PM AKDT
Nautical Twilight 6:07 AM AKDT 12:32 AM AKDT
Astronomical Twilight 4:05 AM AKDT 2:24 AM AKDT
Moon 6:38 PM AKDT 12:21 AM AKDT
Length of Visible Light 16h 05m
Length of Day
14h 21m
Tomorrow will be 6m 21s shorter.
Waxing Crescent, 51% of the Moon is Illuminated
Today
Waxing Crescent
Sep 8
Full
Sep 15
Last Quarter
Sep 24
New
Oct 1
First Quarter

Today's Extremes

State Highs State Lows

Community

WunderPhotos

Upload Photos

1,749,639 photos uploaded!

WunderBlogs® & News

By Dr. Jeff Masters
Director of Meteorology, Weather Underground
By Kari Strenfel
Meteorologist, Weather Underground
By Christopher C. Burt
Weather Historian, Weather Underground
September 2, 2014
September 2, 2014
September 2, 2014

Nearby

Snow Depth

Station Depth Elevation
Rocky Point 4 in 500 ft
Gobblers Knob 0 in 2030 ft
Coldfoot 1 in 1040 ft
Susitna Valley High 2 in 375 ft
Atigun Pass 9 in 4800 ft

Earthquake Activity

City Distance Mag. Time & Date
No recent earthquake activity has been reported nearby.
Minimum magnitude displayed is 2.5.

Coastal Water Temperatures

Place Temperature
No Stations Reporting

Nearby Weather Stations